Time;durP1;ratioP1;P1;durP2;ratioP2;P2;SDS_P1;SDS_P2;PMS_P1;PMS_P2;Temp;Humidity;BMP_temperature;BMP_pressure;BME280_temperature;BME280_humidity;BME280_pressure;Samples;Min_cycle;Max_cycle;Signal;HPM_P1;HPM_P2
2022/10/04 05:33:40;;;;;;;;;;;;;;;11.09;100.00;99835.25;5098642;23;1594;-71
2022/10/04 05:36:09;;;;;;;;;;;;;;;11.20;100.00;99851.78;4995817;28;854;-71
2022/10/04 05:38:39;;;;;;;;;;;;;;;11.28;98.83;99844.25;4995469;28;803;-71
2022/10/04 05:41:08;;;;;;;;;;;;;;;11.43;97.00;99843.72;4995661;28;1906;-72
2022/10/04 05:43:35;;;;;;;;;;;;;;;11.39;93.76;99847.69;4995330;28;857;-72
2022/10/04 05:46:12;;;;;;;;;;;;;;;11.29;92.98;99856.88;4978042;28;1643;-72
2022/10/04 05:48:42;;;;;;;;;;;;;;;11.24;92.05;99849.78;4995217;28;935;-71
2022/10/04 05:51:25;;;;;;;;;;;;;;;11.27;90.24;99850.97;4995588;28;798;-71
2022/10/04 05:53:53;;;;;;;;;;;;;;;11.54;88.45;99846.41;4995631;28;764;-70
2022/10/04 05:56:19;;;;;;;;;;;;;;;12.15;85.18;99840.31;4995107;28;958;-70
2022/10/04 05:58:49;;;;;;;;;;;;;;;12.73;80.24;99847.97;4995198;28;823;-71
2022/10/04 06:01:16;;;;;;;;;;;;;;;13.24;77.73;99849.63;4995088;28;881;-71
2022/10/04 06:04:00;;;;;;;;;;;;;;;13.22;74.03;99843.69;4977182;28;1202;-72
2022/10/04 06:06:43;;;;;;;;;;;;;;;13.05;73.26;99841.97;4995097;28;815;-72
2022/10/04 06:09:14;;;;;;;;;;;;;;;12.94;73.33;99849.69;4977885;28;1171;-71
2022/10/04 06:12:10;;;;;;;;;;;;;;;12.84;72.11;99852.19;4977604;28;1219;-71
2022/10/04 06:14:50;;;;;;;;;;;;;;;12.83;73.00;99852.59;4965195;28;1317;-71
2022/10/04 06:17:19;;;;;;;;;;;;;;;12.84;73.82;99854.97;4994945;28;807;-73
2022/10/04 06:19:45;;;;;;;;;;;;;;;12.93;74.30;99857.22;4994617;28;1895;-71
2022/10/04 06:22:19;;;;;;;;;;;;;;;13.04;71.40;99862.63;4994866;28;917;-70
2022/10/04 06:25:08;;;;;;;;;;;;;;;13.15;69.52;99865.25;4995003;28;827;-73
2022/10/04 06:27:39;;;;;;;;;;;;;;;13.26;68.84;99861.09;4994362;28;848;-71
2022/10/04 06:30:11;;;;;;;;;;;;;;;13.36;69.46;99864.16;4994941;28;843;-72
2022/10/04 06:42:52;;;;;;;;;;;;;;;13.44;66.87;99880.28;4970122;28;1365;-70
2022/10/04 06:45:30;;;;;;;;;;;;;;;13.37;67.22;99882.38;4986628;28;1182;-73
2022/10/04 06:48:03;;;;;;;;;;;;;;;14.01;66.09;99886.88;4994303;28;831;-72
2022/10/04 06:50:51;;;;;;;;;;;;;;;15.42;61.15;99882.84;4994656;28;874;-73
2022/10/04 06:53:21;;;;;;;;;;;;;;;16.78;58.84;99884.13;4994688;28;776;-73
2022/10/04 06:55:48;;;;;;;;;;;;;;;17.19;55.13;99885.31;4994491;28;885;-74
2022/10/04 06:58:17;;;;;;;;;;;;;;;17.42;57.85;99884.22;4977211;28;1300;-72
2022/10/04 07:00:53;;;;;;;;;;;;;;;17.05;56.69;99891.34;4993885;28;1910;-72
2022/10/04 07:03:36;;;;;;;;;;;;;;;16.69;57.03;99884.00;4994094;28;823;-74
2022/10/04 07:06:10;;;;;;;;;;;;;;;16.67;55.21;99892.78;4993888;28;870;-72
2022/10/04 07:08:39;;;;;;;;;;;;;;;16.87;54.97;99892.63;4993937;28;788;-73
2022/10/04 07:11:17;;;;;;;;;;;;;;;17.35;53.28;99890.81;4994188;28;838;-72
2022/10/04 07:13:46;;;;;;;;;;;;;;;18.05;53.12;99884.56;4993739;28;855;-73
2022/10/04 07:16:16;;;;;;;;;;;;;;;18.80;53.05;99881.94;4994103;28;861;-71
2022/10/04 07:18:56;;;;;;;;;;;;;;;19.51;52.60;99886.78;4993605;28;839;-71
2022/10/04 07:21:49;;;;;;;;;;;;;;;19.57;50.58;99896.13;4975742;28;1268;-73
2022/10/04 07:24:20;;;;;;;;;;;;;;;19.26;52.31;99886.97;4993760;28;835;-72
2022/10/04 07:26:48;;;;;;;;;;;;;;;19.06;50.16;99898.56;4993460;28;775;-75
2022/10/04 07:29:30;;;;;;;;;;;;;;;18.89;53.68;99898.00;4975238;28;1270;-72
2022/10/04 07:32:03;;;;;;;;;;;;;;;18.96;53.11;99908.94;4993763;28;929;-71
2022/10/04 07:34:31;;;;;;;;;;;;;;;19.15;53.41;99902.19;4975953;28;1231;-71
2022/10/04 07:37:02;;;;;;;;;;;;;;;19.67;56.00;99899.75;4975746;28;1432;-72
2022/10/04 07:39:43;;;;;;;;;;;;;;;19.87;51.24;99904.97;4992470;28;1951;-71
2022/10/04 07:42:18;;;;;;;;;;;;;;;19.79;50.53;99909.31;4993397;28;803;-72
2022/10/04 07:44:57;;;;;;;;;;;;;;;19.95;50.10;99913.84;4992981;28;1274;-72
2022/10/04 07:47:28;;;;;;;;;;;;;;;20.14;50.28;99909.06;4975652;28;1127;-71
2022/10/04 07:49:57;;;;;;;;;;;;;;;19.94;50.30;99909.50;4975172;28;1350;-71
2022/10/04 07:52:33;;;;;;;;;;;;;;;20.02;50.36;99921.97;4975759;28;1257;-72
2022/10/04 07:55:04;;;;;;;;;;;;;;;20.12;52.39;99917.16;4992920;28;830;-72
2022/10/04 07:57:46;;;;;;;;;;;;;;;19.90;48.71;99914.47;4975630;28;1172;-71
2022/10/04 08:00:40;;;;;;;;;;;;;;;19.41;48.10;99913.19;4992481;28;1910;-73
2022/10/04 08:03:17;;;;;;;;;;;;;;;19.12;51.14;99902.34;4992911;28;1130;-71
2022/10/04 08:05:54;;;;;;;;;;;;;;;19.70;55.37;99910.06;4991256;28;1514;-70
2022/10/04 08:08:40;;;;;;;;;;;;;;;20.06;46.69;99908.59;4992976;28;815;-72
2022/10/04 08:11:07;;;;;;;;;;;;;;;19.97;48.57;99917.78;4992717;28;851;-71
2022/10/04 08:13:40;;;;;;;;;;;;;;;20.16;47.91;99918.59;4992584;28;795;-72
2022/10/04 08:16:18;;;;;;;;;;;;;;;20.15;48.55;99917.00;4992691;28;818;-71
2022/10/04 08:18:48;;;;;;;;;;;;;;;20.14;49.06;99915.47;4992630;28;861;-71
2022/10/04 08:21:17;;;;;;;;;;;;;;;20.38;51.38;99918.44;4974969;28;1886;-71
2022/10/04 08:23:56;;;;;;;;;;;;;;;20.53;47.98;99927.00;4992551;28;799;-70
2022/10/04 08:26:33;;;;;;;;;;;;;;;20.14;48.82;99921.06;4992446;28;870;-71
2022/10/04 08:31:59;;;;;;;;;;;;;;;20.20;48.07;99935.25;4992715;28;958;-70
2022/10/04 08:34:42;;;;;;;;;;;;;;;20.37;50.26;99930.91;4992444;28;811;-71
2022/10/04 08:37:31;;;;;;;;;;;;;;;19.54;50.48;99941.94;4992397;28;820;-70
2022/10/04 08:40:17;;;;;;;;;;;;;;;19.72;54.29;99941.22;4992144;28;1886;-71
2022/10/04 08:43:00;;;;;;;;;;;;;;;19.04;48.08;99948.66;4992313;28;808;-70
2022/10/04 08:45:26;;;;;;;;;;;;;;;17.73;51.10;99945.91;4992106;28;1470;-69
2022/10/04 08:48:03;;;;;;;;;;;;;;;17.97;52.74;99951.16;4992448;28;906;-70
2022/10/04 08:50:37;;;;;;;;;;;;;;;19.05;53.65;99945.38;4992083;28;807;-70
2022/10/04 08:53:21;;;;;;;;;;;;;;;20.00;57.45;99938.50;4992083;28;868;-70
2022/10/04 08:56:07;;;;;;;;;;;;;;;20.78;52.30;99942.00;4992167;28;882;-70
2022/10/04 08:58:33;;;;;;;;;;;;;;;21.08;49.32;99951.47;4992030;28;831;-69
2022/10/04 09:01:10;;;;;;;;;;;;;;;21.32;52.13;99948.00;4992059;28;1910;-69
2022/10/04 09:04:01;;;;;;;;;;;;;;;21.13;44.55;99964.13;4992168;28;914;-70
2022/10/04 09:06:41;;;;;;;;;;;;;;;18.98;46.17;99962.47;4992294;28;854;-68
2022/10/04 09:09:29;;;;;;;;;;;;;;;17.98;49.51;99969.50;4992257;28;835;-69
2022/10/04 09:12:19;;;;;;;;;;;;;;;18.16;53.68;99968.91;4991982;28;879;-68
2022/10/04 09:14:58;;;;;;;;;;;;;;;19.74;52.99;99963.97;4991964;28;815;-70
2022/10/04 09:17:26;;;;;;;;;;;;;;;19.85;45.92;99974.78;4992201;28;869;-70
2022/10/04 09:20:18;;;;;;;;;;;;;;;18.79;47.91;99969.19;4991934;28;1945;-68
2022/10/04 09:22:57;;;;;;;;;;;;;;;18.68;52.18;99975.13;4984754;28;1006;-68
2022/10/04 09:25:39;;;;;;;;;;;;;;;19.58;47.11;99981.78;4991942;28;850;-69
2022/10/04 09:28:14;;;;;;;;;;;;;;;20.17;48.15;99970.63;4974267;28;1285;-69
2022/10/04 09:30:48;;;;;;;;;;;;;;;20.84;44.61;99962.59;4991841;28;1017;-68
2022/10/04 09:33:22;;;;;;;;;;;;;;;20.62;45.88;99971.19;4991973;28;922;-68
2022/10/04 09:36:04;;;;;;;;;;;;;;;20.52;43.59;99978.78;4991790;28;791;-69
2022/10/04 09:38:30;;;;;;;;;;;;;;;21.02;44.06;99981.47;4992035;28;858;-69
2022/10/04 09:41:02;;;;;;;;;;;;;;;20.95;41.41;99990.19;4991706;28;1878;-70
2022/10/04 09:47:00;;;;;;;;;;;;;;;20.71;41.83;99990.84;4988542;28;1247;-72
2022/10/04 09:49:36;;;;;;;;;;;;;;;20.43;41.24;99989.25;4961857;28;1240;-71
2022/10/04 09:52:11;;;;;;;;;;;;;;;19.51;43.25;99993.28;4991726;28;822;-69
2022/10/04 09:54:56;;;;;;;;;;;;;;;19.65;45.87;99996.78;4991691;28;823;-68
2022/10/04 09:57:26;;;;;;;;;;;;;;;19.75;44.03;99993.56;4991447;28;865;-71
2022/10/04 10:00:13;;;;;;;;;;;;;;;19.52;45.36;99991.25;4991556;28;1979;-70
2022/10/04 10:06:02;;;;;;;;;;;;;;;20.78;42.60;99989.72;4995332;28;785;-72
2022/10/04 10:08:31;;;;;;;;;;;;;;;21.46;41.67;99981.06;4994973;28;866;-70
2022/10/04 10:14:11;;;;;;;;;;;;;;;19.68;42.95;99995.88;4995653;28;629;-68
2022/10/04 10:19:55;;;;;;;;;;;;;;;20.45;42.11;100000.78;4994780;28;1902;-68
2022/10/04 10:22:29;;;;;;;;;;;;;;;19.64;42.50;99996.00;4994629;28;863;-68
2022/10/04 10:25:14;;;;;;;;;;;;;;;19.40;43.28;99995.72;4994704;28;870;-68
2022/10/04 10:27:47;;;;;;;;;;;;;;;20.88;42.85;99984.91;4994742;28;865;-69
2022/10/04 10:30:15;;;;;;;;;;;;;;;21.74;40.58;99990.19;4994734;28;847;-69
2022/10/04 10:33:18;;;;;;;;;;;;;;;20.88;40.17;99985.69;4994937;28;877;-69
2022/10/04 10:36:02;;;;;;;;;;;;;;;21.14;41.97;99988.91;4991375;28;911;-70
2022/10/04 10:38:47;;;;;;;;;;;;;;;22.15;39.34;99984.22;4994690;28;878;-68
2022/10/04 10:41:31;;;;;;;;;;;;;;;23.09;38.88;99986.66;4994310;28;1887;-69
2022/10/04 10:44:01;;;;;;;;;;;;;;;23.34;36.64;99985.28;4994599;28;792;-71
2022/10/04 10:46:29;;;;;;;;;;;;;;;22.12;39.55;99988.72;4992686;28;1223;-70
2022/10/04 10:49:15;;;;;;;;;;;;;;;21.13;40.68;99986.59;4976841;28;1422;-69
2022/10/04 10:52:00;;;;;;;;;;;;;;;20.27;40.37;99988.28;4994184;28;843;-68
2022/10/04 10:54:29;;;;;;;;;;;;;;;19.29;41.70;99995.38;4994185;28;815;-69
2022/10/04 10:57:05;;;;;;;;;;;;;;;18.70;43.57;99993.03;4993980;28;1012;-69
2022/10/04 10:59:49;;;;;;;;;;;;;;;18.32;44.17;99993.94;4994200;28;1910;-68
2022/10/04 11:02:35;;;;;;;;;;;;;;;18.09;44.80;99991.50;4994001;28;775;-68
2022/10/04 11:05:22;;;;;;;;;;;;;;;18.14;44.78;99990.97;4993998;28;819;-70
2022/10/04 11:07:52;;;;;;;;;;;;;;;19.53;43.65;99985.19;4993905;28;855;-68
2022/10/04 11:10:31;;;;;;;;;;;;;;;20.43;42.40;99984.41;4993871;28;920;-69
2022/10/04 11:13:17;;;;;;;;;;;;;;;21.65;39.68;99987.41;4976190;28;1219;-70
2022/10/04 11:16:09;;;;;;;;;;;;;;;21.71;39.33;99991.13;4993675;28;806;-69
2022/10/04 11:18:57;;;;;;;;;;;;;;;20.66;39.71;100002.69;4993735;28;846;-68
2022/10/04 11:34:01;;;;;;;;;;;;;;;18.14;43.67;100005.72;4993472;28;665;-68
2022/10/04 11:36:39;;;;;;;;;;;;;;;17.90;42.64;100005.31;4993366;28;934;-70
2022/10/04 11:39:08;;;;;;;;;;;;;;;17.67;43.03;100014.00;4975760;28;1898;-70
2022/10/04 11:41:54;;;;;;;;;;;;;;;17.67;43.97;100014.78;4993358;28;838;-69
2022/10/04 11:44:29;;;;;;;;;;;;;;;17.93;44.33;100010.00;4993267;28;874;-69
2022/10/04 11:47:08;;;;;;;;;;;;;;;18.11;44.29;100006.59;4993034;28;1266;-69
2022/10/04 11:49:44;;;;;;;;;;;;;;;18.22;44.08;100003.47;4993276;28;874;-71
2022/10/04 11:52:29;;;;;;;;;;;;;;;18.88;43.16;100000.03;4993034;28;855;-70
2022/10/04 11:55:33;;;;;;;;;;;;;;;20.35;40.30;99992.34;4993054;28;866;-73
2022/10/04 11:58:08;;;;;;;;;;;;;;;21.85;38.69;99997.31;4993083;28;791;-71
2022/10/04 12:00:44;;;;;;;;;;;;;;;22.70;38.61;99995.09;4992811;28;2042;-71
2022/10/04 12:03:18;;;;;;;;;;;;;;;23.24;35.67;99998.69;4975376;28;1102;-72
2022/10/04 12:05:52;;;;;;;;;;;;;;;23.26;35.70;99992.59;4975326;28;1110;-69
2022/10/04 12:08:38;;;;;;;;;;;;;;;23.86;34.50;99990.50;4993088;28;788;-69
2022/10/04 12:11:13;;;;;;;;;;;;;;;24.16;34.68;99999.66;4975065;28;1253;-71
2022/10/04 12:26:42;;;;;;;;;;;;;;;22.91;34.16;100001.63;4992059;28;614;-71
2022/10/04 12:32:40;;;;;;;;;;;;;;;23.12;33.63;100002.56;4992782;28;1059;-71
2022/10/04 12:35:26;;;;;;;;;;;;;;;23.50;33.57;100000.94;4979815;28;1237;-70
2022/10/04 12:38:06;;;;;;;;;;;;;;;23.98;33.75;99999.88;4992644;28;847;-70
2022/10/04 12:40:44;;;;;;;;;;;;;;;23.98;31.63;100006.34;4974843;28;1902;-70
2022/10/04 12:43:21;;;;;;;;;;;;;;;23.68;31.92;100010.44;4992295;28;1003;-70
2022/10/04 12:45:51;;;;;;;;;;;;;;;23.38;32.72;100014.06;4992050;28;1228;-69
2022/10/04 12:48:20;;;;;;;;;;;;;;;22.66;33.87;100016.25;4974706;28;1195;-70
2022/10/04 12:50:52;;;;;;;;;;;;;;;22.14;33.27;100028.44;4992201;28;915;-69
2022/10/04 12:53:33;;;;;;;;;;;;;;;20.87;34.72;100015.03;4992261;28;816;-69
2022/10/04 12:56:20;;;;;;;;;;;;;;;19.91;36.21;100022.63;4992010;28;796;-69
2022/10/04 13:02:25;;;;;;;;;;;;;;;19.64;38.39;100015.63;4932307;29;642;-68
2022/10/04 13:04:54;;;;;;;;;;;;;;;20.29;37.95;100027.91;4932276;29;858;-69
2022/10/04 13:07:27;;;;;;;;;;;;;;;21.03;36.52;100018.75;4932304;29;800;-69
2022/10/04 13:10:10;;;;;;;;;;;;;;;20.46;37.12;100013.56;4916066;29;956;-68
2022/10/04 13:12:39;;;;;;;;;;;;;;;20.31;38.00;100014.19;4932185;29;800;-68
2022/10/04 13:15:23;;;;;;;;;;;;;;;21.38;36.04;100022.00;4932351;29;871;-69
2022/10/04 13:18:03;;;;;;;;;;;;;;;21.16;35.87;100027.78;4932120;29;823;-69
2022/10/04 13:20:29;;;;;;;;;;;;;;;21.35;36.14;100015.25;4932022;29;1890;-68
2022/10/04 13:22:56;;;;;;;;;;;;;;;22.11;34.67;100023.78;4932034;29;1003;-68
2022/10/04 13:25:44;;;;;;;;;;;;;;;22.19;34.03;100013.72;4916024;29;1510;-68
2022/10/04 13:28:22;;;;;;;;;;;;;;;21.78;33.88;100012.50;4931709;28;1228;-69
2022/10/04 13:30:52;;;;;;;;;;;;;;;20.59;35.02;100017.06;4931944;29;974;-68
2022/10/04 13:33:28;;;;;;;;;;;;;;;19.52;36.65;100022.09;4931964;29;875;-68
2022/10/04 13:36:04;;;;;;;;;;;;;;;18.66;38.15;100025.19;4947941;28;1176;-69
2022/10/04 13:38:49;;;;;;;;;;;;;;;18.14;39.65;100038.50;4993420;28;791;-67
2022/10/04 13:41:24;;;;;;;;;;;;;;;17.74;40.43;100039.69;4995507;28;1906;-69
2022/10/04 13:44:00;;;;;;;;;;;;;;;17.48;40.83;100043.72;4995430;28;816;-68
2022/10/04 13:46:26;;;;;;;;;;;;;;;17.26;41.13;100044.31;4995473;28;1277;-67
2022/10/04 13:49:10;;;;;;;;;;;;;;;17.61;40.44;100052.09;4995503;28;823;-67
2022/10/04 13:51:46;;;;;;;;;;;;;;;17.58;40.08;100044.59;4995320;28;858;-68
2022/10/04 13:57:23;;;;;;;;;;;;;;;17.47;40.77;100056.88;4995463;28;677;-68
2022/10/04 13:59:52;;;;;;;;;;;;;;;17.50;40.98;100058.78;4995197;28;1914;-68
2022/10/04 14:02:31;;;;;;;;;;;;;;;17.54;40.62;100053.88;4995154;28;799;-69
2022/10/04 14:05:09;;;;;;;;;;;;;;;17.60;40.68;100065.28;4995054;28;878;-67
2022/10/04 14:07:54;;;;;;;;;;;;;;;17.67;40.88;100062.28;4995013;28;879;-69
2022/10/04 14:10:23;;;;;;;;;;;;;;;17.78;41.02;100075.94;4994986;28;808;-67
2022/10/04 14:13:01;;;;;;;;;;;;;;;17.86;41.06;100073.72;4995116;28;881;-68
2022/10/04 14:19:07;;;;;;;;;;;;;;;17.94;40.77;100075.06;4994898;28;626;-68
2022/10/04 14:21:47;;;;;;;;;;;;;;;18.05;41.09;100074.75;4994687;28;1899;-67
2022/10/04 14:24:25;;;;;;;;;;;;;;;18.04;40.91;100082.34;4994628;28;831;-68
2022/10/04 14:27:10;;;;;;;;;;;;;;;18.32;41.01;100075.06;4994693;28;859;-68
2022/10/04 14:29:39;;;;;;;;;;;;;;;18.93;40.99;100080.69;4994638;28;862;-68
2022/10/04 14:32:19;;;;;;;;;;;;;;;18.64;41.11;100076.03;4994902;28;909;-68
2022/10/04 14:34:54;;;;;;;;;;;;;;;18.27;41.92;100080.47;4994644;28;894;-69
2022/10/04 14:37:38;;;;;;;;;;;;;;;18.05;42.65;100094.31;4994528;28;816;-68
2022/10/04 14:40:20;;;;;;;;;;;;;;;17.91;42.99;100101.94;4994464;28;1960;-67
2022/10/04 14:43:07;;;;;;;;;;;;;;;17.84;43.47;100106.97;4994381;28;846;-68
2022/10/04 14:45:42;;;;;;;;;;;;;;;17.84;43.57;100106.97;4963818;28;1247;-68
2022/10/04 14:48:18;;;;;;;;;;;;;;;17.85;44.08;100108.53;4994268;28;914;-68
2022/10/04 14:50:44;;;;;;;;;;;;;;;17.81;44.49;100108.59;4993927;28;859;-68
2022/10/04 14:53:20;;;;;;;;;;;;;;;17.67;44.18;100115.41;4994068;28;787;-68
2022/10/04 14:56:06;;;;;;;;;;;;;;;17.57;44.53;100112.91;4994314;28;795;-69
2022/10/04 14:58:39;;;;;;;;;;;;;;;17.54;45.11;100115.38;4976529;28;1166;-68
2022/10/04 15:01:18;;;;;;;;;;;;;;;17.39;45.13;100116.19;4994041;28;1914;-69
2022/10/04 15:03:49;;;;;;;;;;;;;;;17.22;45.56;100118.25;4993977;28;854;-68
2022/10/04 15:06:18;;;;;;;;;;;;;;;17.09;45.99;100121.78;4976730;28;1222;-69
2022/10/04 15:08:54;;;;;;;;;;;;;;;17.03;46.40;100125.56;4993937;28;842;-69
2022/10/04 15:11:39;;;;;;;;;;;;;;;17.00;46.74;100130.00;4976402;28;891;-68
2022/10/04 15:14:24;;;;;;;;;;;;;;;17.07;46.31;100135.41;4993769;28;851;-68
2022/10/04 15:16:58;;;;;;;;;;;;;;;17.16;46.10;100131.97;4993777;28;862;-68
2022/10/04 15:19:49;;;;;;;;;;;;;;;17.18;46.36;100142.72;4993651;28;1952;-69
2022/10/04 15:22:26;;;;;;;;;;;;;;;17.12;46.70;100136.88;4993578;28;838;-68
2022/10/04 15:24:53;;;;;;;;;;;;;;;16.98;46.63;100140.03;4993610;28;827;-68
2022/10/04 15:27:28;;;;;;;;;;;;;;;16.82;47.21;100144.41;4993527;28;866;-68
2022/10/04 15:30:02;;;;;;;;;;;;;;;16.64;48.08;100144.03;4993767;28;791;-68
2022/10/04 15:32:47;;;;;;;;;;;;;;;16.45;48.70;100143.69;4993793;28;918;-69
2022/10/04 15:35:25;;;;;;;;;;;;;;;16.22;49.21;100139.03;4993304;28;914;-69
2022/10/04 15:37:57;;;;;;;;;;;;;;;16.00;50.27;100155.47;4993413;28;779;-69
2022/10/04 15:40:33;;;;;;;;;;;;;;;15.83;51.04;100157.41;4993182;28;1894;-68
2022/10/04 15:43:09;;;;;;;;;;;;;;;15.67;51.35;100160.09;4993230;28;821;-68
2022/10/04 15:45:53;;;;;;;;;;;;;;;15.55;51.65;100160.72;4992909;28;1307;-68
2022/10/04 15:48:29;;;;;;;;;;;;;;;15.42;52.28;100169.72;4993174;28;839;-69
2022/10/04 15:51:05;;;;;;;;;;;;;;;15.31;52.87;100178.28;4975614;28;1283;-68
2022/10/04 15:54:04;;;;;;;;;;;;;;;15.21;53.17;100175.69;4993164;28;835;-68
2022/10/04 15:56:34;;;;;;;;;;;;;;;15.16;53.48;100176.97;4960256;28;1065;-69
2022/10/04 15:59:20;;;;;;;;;;;;;;;15.15;54.00;100175.41;4992965;28;799;-69
2022/10/04 16:02:05;;;;;;;;;;;;;;;15.00;54.67;100174.06;4992223;28;842;-69
2022/10/04 16:04:50;;;;;;;;;;;;;;;14.76;55.60;100185.19;4992818;28;870;-68
2022/10/04 16:07:29;;;;;;;;;;;;;;;14.62;56.17;100190.97;4992911;28;847;-69
2022/10/04 16:09:59;;;;;;;;;;;;;;;14.47;56.63;100193.94;4992936;28;820;-69
2022/10/04 16:12:31;;;;;;;;;;;;;;;14.34;57.25;100204.06;4993024;28;800;-69
2022/10/04 16:15:01;;;;;;;;;;;;;;;14.19;58.06;100205.44;4992730;28;828;-69
2022/10/04 16:17:47;;;;;;;;;;;;;;;14.03;58.64;100206.06;4992701;28;815;-69
2022/10/04 16:20:26;;;;;;;;;;;;;;;13.83;59.46;100212.25;4992570;28;1882;-68
2022/10/04 16:23:23;;;;;;;;;;;;;;;13.65;60.11;100218.00;4992475;28;854;-69
2022/10/04 16:25:51;;;;;;;;;;;;;;;13.54;60.76;100219.31;4980124;28;1291;-69
2022/10/04 16:28:18;;;;;;;;;;;;;;;13.48;60.74;100224.53;4992416;28;867;-69
2022/10/04 16:30:59;;;;;;;;;;;;;;;13.41;61.08;100230.16;4992424;28;1003;-69
2022/10/04 16:33:27;;;;;;;;;;;;;;;13.39;61.28;100232.56;4975012;28;1232;-68
2022/10/04 16:36:12;;;;;;;;;;;;;;;13.39;61.10;100244.44;4992406;28;929;-69
2022/10/04 16:41:58;;;;;;;;;;;;;;;13.36;60.83;100248.06;4992580;28;677;-68
2022/10/04 16:44:31;;;;;;;;;;;;;;;13.37;60.56;100251.63;4992367;28;787;-70
2022/10/04 16:47:13;;;;;;;;;;;;;;;13.41;60.33;100253.16;4992153;28;1396;-69
2022/10/04 16:49:48;;;;;;;;;;;;;;;13.50;60.16;100257.44;4975147;28;1322;-68
2022/10/04 16:52:33;;;;;;;;;;;;;;;13.61;59.14;100264.47;4992108;28;803;-69
2022/10/04 16:55:02;;;;;;;;;;;;;;;13.75;58.21;100260.75;4992183;28;922;-69
2022/10/04 16:57:29;;;;;;;;;;;;;;;13.80;57.82;100263.06;4992354;28;892;-69
2022/10/04 16:59:56;;;;;;;;;;;;;;;13.77;58.06;100274.25;4992078;28;1980;-69
2022/10/04 17:02:35;;;;;;;;;;;;;;;13.74;57.45;100275.88;4992065;28;882;-69
2022/10/04 17:05:17;;;;;;;;;;;;;;;13.78;57.35;100275.81;4992191;28;787;-70
2022/10/04 17:08:03;;;;;;;;;;;;;;;13.57;56.92;100240.69;4992231;28;1287;-68
2022/10/04 17:10:48;;;;;;;;;;;;;;;13.84;56.08;100280.50;4992344;28;807;-69
2022/10/04 17:13:22;;;;;;;;;;;;;;;13.80;56.15;100279.75;4994746;28;858;-69
2022/10/04 17:15:58;;;;;;;;;;;;;;;13.78;55.96;100284.91;4978481;28;1297;-69
2022/10/04 17:18:37;;;;;;;;;;;;;;;13.73;56.28;100285.38;4995975;28;882;-69
2022/10/04 17:21:11;;;;;;;;;;;;;;;13.66;56.67;100289.03;4995852;28;1926;-68
2022/10/04 17:23:46;;;;;;;;;;;;;;;13.59;56.56;100303.00;4995876;28;807;-69
2022/10/04 17:26:31;;;;;;;;;;;;;;;13.55;56.83;100299.44;4995883;28;878;-69
2022/10/04 17:28:59;;;;;;;;;;;;;;;13.35;57.46;100301.19;4978339;28;911;-69
2022/10/04 17:31:32;;;;;;;;;;;;;;;13.03;58.99;100305.75;4978013;28;1063;-68
2022/10/04 17:33:59;;;;;;;;;;;;;;;12.71;59.95;100305.97;4995862;28;854;-69
2022/10/04 17:36:33;;;;;;;;;;;;;;;12.54;60.54;100317.94;4995750;28;1032;-68
2022/10/04 17:39:06;;;;;;;;;;;;;;;12.39;60.87;100306.91;4995633;28;800;-70
2022/10/04 17:41:50;;;;;;;;;;;;;;;12.34;61.03;100317.66;4995434;28;1890;-69
2022/10/04 17:44:23;;;;;;;;;;;;;;;12.25;60.98;100332.72;4995520;28;891;-68
2022/10/04 17:46:53;;;;;;;;;;;;;;;12.11;61.24;100335.53;4974573;28;1280;-69
2022/10/04 17:55:15;;;;;;;;;;;;;;;11.54;63.81;100341.94;4976173;28;697;-68
2022/10/04 17:57:51;;;;;;;;;;;;;;;11.50;63.65;100340.31;4975861;28;835;-68
2022/10/04 18:00:22;;;;;;;;;;;;;;;11.44;63.99;100337.19;4975688;28;1977;-68
2022/10/04 18:03:07;;;;;;;;;;;;;;;11.41;63.97;100343.47;4975694;28;835;-68
2022/10/04 18:05:45;;;;;;;;;;;;;;;11.27;64.63;100351.81;4975701;28;796;-69
2022/10/04 18:08:27;;;;;;;;;;;;;;;11.16;64.92;100360.06;4975612;28;879;-68
2022/10/04 18:10:58;;;;;;;;;;;;;;;11.17;65.36;100356.13;4975687;28;866;-69
2022/10/04 18:13:43;;;;;;;;;;;;;;;11.15;65.23;100358.50;4975528;28;851;-68
2022/10/04 18:16:25;;;;;;;;;;;;;;;11.12;65.43;100362.84;4975449;28;963;-68
2022/10/04 18:18:51;;;;;;;;;;;;;;;11.07;65.77;100365.19;4975684;28;839;-69
2022/10/04 18:21:22;;;;;;;;;;;;;;;11.06;65.87;100366.38;4973855;28;1894;-68
2022/10/04 18:24:12;;;;;;;;;;;;;;;11.08;66.01;100369.56;4974533;28;803;-69
2022/10/04 18:26:52;;;;;;;;;;;;;;;11.03;66.22;100381.75;4967452;28;1074;-69
2022/10/04 18:29:33;;;;;;;;;;;;;;;10.94;66.72;100379.38;4974089;28;831;-69
2022/10/04 18:32:13;;;;;;;;;;;;;;;10.86;67.28;100379.75;4975409;28;890;-69
2022/10/04 18:34:40;;;;;;;;;;;;;;;10.67;67.94;100384.44;4975147;28;902;-69
2022/10/04 18:37:20;;;;;;;;;;;;;;;10.57;68.40;100385.19;4975074;28;874;-68
2022/10/04 18:39:49;;;;;;;;;;;;;;;10.73;68.78;100398.66;4975283;28;1886;-68
2022/10/04 18:42:16;;;;;;;;;;;;;;;11.43;66.91;100393.69;4974971;28;854;-68
2022/10/04 18:44:58;;;;;;;;;;;;;;;12.04;64.52;100390.97;4973706;28;1295;-69
2022/10/04 18:47:36;;;;;;;;;;;;;;;12.46;62.88;100395.63;4955644;29;843;-68
2022/10/04 18:50:21;;;;;;;;;;;;;;;12.68;62.25;100400.31;4955476;28;870;-69
2022/10/04 18:52:54;;;;;;;;;;;;;;;12.72;62.53;100401.06;4955575;28;815;-69
2022/10/04 18:55:27;;;;;;;;;;;;;;;12.57;62.45;100403.91;4955665;28;788;-68
2022/10/04 19:04:24;;;;;;;;;;;;;;;11.96;65.03;100417.88;4896208;29;1201;-69
2022/10/04 19:06:55;;;;;;;;;;;;;;;11.79;65.19;100413.88;4896191;29;1083;-69
2022/10/04 19:09:35;;;;;;;;;;;;;;;11.62;66.23;100412.69;4896188;29;866;-68
2022/10/04 19:12:10;;;;;;;;;;;;;;;11.53;66.34;100420.59;4896150;29;1076;-69
2022/10/04 19:14:39;;;;;;;;;;;;;;;11.49;66.62;100424.56;4896076;29;848;-68
2022/10/04 19:17:05;;;;;;;;;;;;;;;11.35;67.13;100422.56;4896055;29;864;-68
2022/10/04 19:19:51;;;;;;;;;;;;;;;11.18;67.58;100432.41;4895964;29;1883;-69
2022/10/04 19:22:41;;;;;;;;;;;;;;;11.10;68.06;100431.59;4880267;29;887;-68
2022/10/04 19:25:38;;;;;;;;;;;;;;;11.19;68.25;100434.78;4893568;29;1063;-68
2022/10/04 19:28:12;;;;;;;;;;;;;;;11.15;68.32;100436.75;4892404;29;1375;-68
2022/10/04 19:30:37;;;;;;;;;;;;;;;11.11;68.27;100430.41;4895720;29;1061;-69
2022/10/04 19:33:10;;;;;;;;;;;;;;;11.01;68.34;100439.47;4895713;29;876;-69
2022/10/04 19:35:37;;;;;;;;;;;;;;;10.92;68.66;100439.03;4895762;29;777;-68
2022/10/04 19:38:09;;;;;;;;;;;;;;;10.90;69.17;100450.47;4921171;29;1052;-69
2022/10/04 19:40:39;;;;;;;;;;;;;;;10.93;69.25;100440.63;4954621;28;1887;-69
2022/10/04 19:43:20;;;;;;;;;;;;;;;10.96;69.04;100446.16;4954607;28;800;-70
2022/10/04 19:46:03;;;;;;;;;;;;;;;11.04;68.90;100445.00;4970328;28;1271;-68
2022/10/04 19:48:35;;;;;;;;;;;;;;;11.08;69.08;100450.56;4993381;28;804;-69
2022/10/04 19:51:28;;;;;;;;;;;;;;;11.08;69.13;100447.00;4993140;28;847;-69
2022/10/04 19:54:02;;;;;;;;;;;;;;;11.18;68.75;100452.56;4990666;28;1048;-69
2022/10/04 19:56:32;;;;;;;;;;;;;;;11.28;68.14;100448.25;4993078;28;878;-69
2022/10/04 19:59:06;;;;;;;;;;;;;;;11.34;67.39;100448.66;4993160;28;886;-69
2022/10/04 20:01:34;;;;;;;;;;;;;;;11.41;67.37;100449.47;4992819;28;1910;-69
2022/10/04 20:06:55;;;;;;;;;;;;;;;11.38;67.16;100457.75;4993266;28;633;-69
2022/10/04 20:09:40;;;;;;;;;;;;;;;11.33;68.12;100463.66;4975508;28;911;-68
2022/10/04 20:12:27;;;;;;;;;;;;;;;11.27;68.28;100465.25;4992808;28;875;-69
2022/10/04 20:15:15;;;;;;;;;;;;;;;11.22;68.59;100464.44;4992700;28;862;-68
2022/10/04 20:17:43;;;;;;;;;;;;;;;11.20;69.03;100464.03;4975038;28;1179;-68
2022/10/04 20:20:13;;;;;;;;;;;;;;;11.16;69.17;100466.00;4992583;28;1894;-69
2022/10/04 20:23:00;;;;;;;;;;;;;;;11.14;69.75;100467.59;4992773;28;847;-69
2022/10/04 20:25:45;;;;;;;;;;;;;;;11.15;69.84;100474.69;4975562;28;1330;-69
2022/10/04 20:28:34;;;;;;;;;;;;;;;11.15;69.88;100475.47;4992544;28;792;-68
2022/10/04 20:31:01;;;;;;;;;;;;;;;11.11;69.90;100476.66;4992399;28;1106;-69
2022/10/04 20:33:35;;;;;;;;;;;;;;;11.09;70.11;100474.25;4992432;28;846;-69
2022/10/04 20:36:07;;;;;;;;;;;;;;;11.03;70.61;100470.28;4992528;28;843;-69
2022/10/04 20:38:53;;;;;;;;;;;;;;;10.98;70.85;100478.97;4992480;28;843;-68
2022/10/04 20:41:29;;;;;;;;;;;;;;;10.97;71.03;100480.16;4992225;28;1949;-69
2022/10/04 20:43:56;;;;;;;;;;;;;;;10.98;70.95;100479.75;4992352;28;779;-69